createdAt,value
2023-01-29T00:01:23.099Z,58.40
2023-01-29T00:03:51.731Z,58.30
2023-01-29T00:06:18.841Z,58.10
2023-01-29T00:08:45.535Z,58.00
2023-01-29T00:11:12.683Z,58.20
2023-01-29T00:13:39.273Z,58.20
2023-01-29T00:16:06.195Z,58.20
2023-01-29T00:18:32.856Z,58.30
2023-01-29T00:20:59.938Z,58.30
2023-01-29T00:23:26.717Z,58.20
2023-01-29T00:25:53.330Z,58.30
2023-01-29T00:28:19.976Z,58.30
2023-01-29T00:30:46.563Z,58.30
2023-01-29T00:33:13.528Z,58.30
2023-01-29T00:35:41.079Z,58.40
2023-01-29T00:38:07.696Z,58.50
2023-01-29T00:40:57.113Z,58.40
2023-01-29T00:43:43.244Z,58.40
2023-01-29T00:46:10.586Z,58.40
2023-01-29T00:48:37.432Z,58.40
2023-01-29T00:51:04.324Z,58.40
2023-01-29T00:53:30.955Z,58.50
2023-01-29T00:55:57.537Z,58.50
2023-01-29T00:58:28.125Z,58.60
2023-01-29T01:00:55.986Z,58.60
2023-01-29T01:03:22.663Z,58.60
2023-01-29T01:05:49.260Z,58.70
2023-01-29T01:08:34.660Z,58.60
2023-01-29T01:11:06.483Z,58.60
2023-01-29T01:13:34.645Z,58.80
2023-01-29T01:16:01.342Z,58.80
2023-01-29T01:18:31.452Z,58.50
2023-01-29T01:20:58.416Z,58.40
2023-01-29T01:23:25.596Z,58.60
2023-01-29T01:25:52.164Z,58.80
2023-01-29T01:28:18.757Z,58.90
2023-01-29T01:30:45.401Z,58.90
2023-01-29T01:33:12.056Z,58.80
2023-01-29T01:35:39.419Z,58.70
2023-01-29T01:38:06.014Z,58.80
2023-01-29T01:40:32.864Z,58.80
2023-01-29T01:43:01.210Z,58.80
2023-01-29T01:45:36.226Z,58.70
2023-01-29T01:48:12.925Z,58.60
2023-01-29T01:50:51.721Z,58.70
2023-01-29T01:53:34.622Z,58.60
2023-01-29T01:56:06.556Z,58.70
2023-01-29T01:58:39.360Z,58.70
2023-01-29T02:01:08.232Z,58.60
2023-01-29T02:04:19.460Z,58.80
2023-01-29T02:07:04.960Z,58.90
2023-01-29T02:09:40.904Z,59.00
2023-01-29T02:12:11.053Z,58.90
2023-01-29T02:14:40.132Z,59.00
2023-01-29T02:17:08.346Z,58.90
2023-01-29T02:19:56.491Z,59.00
2023-01-29T02:22:38.343Z,58.90
2023-01-29T02:25:23.909Z,58.90
2023-01-29T02:28:09.549Z,59.00
2023-01-29T02:31:00.209Z,59.00
2023-01-29T02:33:35.919Z,58.80
2023-01-29T02:36:28.696Z,58.90
2023-01-29T02:39:00.125Z,59.00
2023-01-29T02:41:30.808Z,59.00
2023-01-29T02:44:42.895Z,59.10
2023-01-29T02:47:23.089Z,59.30
2023-01-29T02:50:17.006Z,59.40
2023-01-29T02:53:00.659Z,59.40
2023-01-29T02:55:35.778Z,59.20
2023-01-29T02:58:17.737Z,59.10
2023-01-29T03:00:46.931Z,59.10
2023-01-29T03:03:29.974Z,59.20
2023-01-29T03:06:29.184Z,59.10
2023-01-29T03:09:00.272Z,59.00
2023-01-29T03:11:35.355Z,59.00
2023-01-29T03:14:16.896Z,59.00
2023-01-29T03:16:51.299Z,58.90
2023-01-29T03:19:24.220Z,58.90
2023-01-29T03:22:00.028Z,59.10
2023-01-29T03:25:05.294Z,59.10
2023-01-29T03:28:12.212Z,59.10
2023-01-29T03:31:04.155Z,59.20
2023-01-29T03:33:35.484Z,59.20
2023-01-29T03:36:08.847Z,59.10
2023-01-29T03:38:35.633Z,59.10
2023-01-29T03:41:20.166Z,59.10
2023-01-29T03:44:20.413Z,59.10
2023-01-29T03:47:05.211Z,58.90
2023-01-29T03:49:34.820Z,59.10
2023-01-29T03:52:10.872Z,59.10
2023-01-29T03:54:47.106Z,59.10
2023-01-29T03:57:39.904Z,59.10
2023-01-29T04:00:21.297Z,59.10
2023-01-29T04:02:58.452Z,59.20
2023-01-29T04:05:31.418Z,59.20
2023-01-29T04:08:04.823Z,59.10
2023-01-29T04:10:36.023Z,59.10
2023-01-29T04:13:10.357Z,59.10
2023-01-29T04:15:43.863Z,59.00
2023-01-29T04:18:10.615Z,59.00
2023-01-29T04:20:37.849Z,59.00
2023-01-29T04:23:07.534Z,59.00
2023-01-29T04:25:44.686Z,59.00
2023-01-29T04:28:28.210Z,59.00
2023-01-29T04:31:06.672Z,58.90
2023-01-29T04:33:57.241Z,58.90
2023-01-29T04:36:42.697Z,58.80
2023-01-29T04:39:12.172Z,58.90
2023-01-29T04:42:07.168Z,58.80
2023-01-29T04:44:49.740Z,58.80
2023-01-29T04:47:22.411Z,58.90
2023-01-29T04:50:20.659Z,58.90
2023-01-29T04:53:17.882Z,58.80
2023-01-29T04:55:50.810Z,58.90
2023-01-29T04:58:36.615Z,59.00
2023-01-29T05:01:06.744Z,58.90
2023-01-29T05:03:36.106Z,59.00
2023-01-29T05:06:03.063Z,58.90
2023-01-29T05:08:31.865Z,58.90
2023-01-29T05:10:59.819Z,59.00
2023-01-29T05:13:29.228Z,59.00
2023-01-29T05:16:15.396Z,58.80
2023-01-29T05:18:42.502Z,58.60
2023-01-29T05:21:09.926Z,58.80
2023-01-29T05:23:36.743Z,58.80
2023-01-29T05:26:03.800Z,58.60
2023-01-29T05:28:30.626Z,58.80
2023-01-29T05:30:57.654Z,58.90
2023-01-29T05:33:29.828Z,59.00
2023-01-29T05:35:59.027Z,59.10
2023-01-29T05:38:25.961Z,59.10
2023-01-29T05:40:52.562Z,59.10
2023-01-29T05:43:20.690Z,59.00
2023-01-29T05:45:54.322Z,58.90
2023-01-29T05:48:20.886Z,58.70
2023-01-29T05:50:47.620Z,58.90
2023-01-29T05:53:14.382Z,59.00
2023-01-29T05:55:45.511Z,59.00
2023-01-29T05:58:12.924Z,58.90
2023-01-29T06:00:39.759Z,58.90
2023-01-29T06:03:06.461Z,58.80
2023-01-29T06:05:33.174Z,58.80
2023-01-29T06:07:59.815Z,58.70
2023-01-29T06:10:26.547Z,58.70
2023-01-29T06:12:53.127Z,58.70
2023-01-29T06:15:19.762Z,58.80
2023-01-29T06:17:46.403Z,58.70
2023-01-29T06:20:13.222Z,58.80
2023-01-29T06:22:39.860Z,58.80
2023-01-29T06:25:07.156Z,58.80
2023-01-29T06:27:33.737Z,58.90
2023-01-29T06:30:00.341Z,58.90
2023-01-29T06:32:27.904Z,59.00
2023-01-29T06:34:54.520Z,59.00
2023-01-29T06:37:21.111Z,58.90
2023-01-29T06:39:47.727Z,58.90
2023-01-29T06:42:14.395Z,58.90
2023-01-29T06:44:41.013Z,58.90
2023-01-29T06:47:07.609Z,58.90
2023-01-29T06:49:34.364Z,58.90
2023-01-29T06:52:00.970Z,58.90
2023-01-29T06:54:27.630Z,58.90
2023-01-29T06:56:54.295Z,58.90
2023-01-29T06:59:20.929Z,58.90
2023-01-29T07:01:47.743Z,58.90
2023-01-29T07:04:14.461Z,58.80
2023-01-29T07:06:41.091Z,58.80
2023-01-29T07:09:07.774Z,58.70
2023-01-29T07:11:35.370Z,58.70
2023-01-29T07:14:02.029Z,58.70
2023-01-29T07:16:28.682Z,58.60
2023-01-29T07:18:55.346Z,58.60
2023-01-29T07:21:22.106Z,58.60
2023-01-29T07:23:48.811Z,58.60
2023-01-29T07:26:16.316Z,58.50
2023-01-29T07:28:43.170Z,58.40
2023-01-29T07:31:13.122Z,58.40
2023-01-29T07:33:39.943Z,58.40
2023-01-29T07:36:11.310Z,58.50
2023-01-29T07:38:38.103Z,58.40
2023-01-29T07:41:04.927Z,58.50
2023-01-29T07:43:31.599Z,58.50
2023-01-29T07:46:02.189Z,58.40
2023-01-29T07:48:28.862Z,58.40
2023-01-29T07:50:56.605Z,58.40
2023-01-29T07:53:23.337Z,58.40
2023-01-29T07:55:50.255Z,58.30
2023-01-29T07:58:17.082Z,58.30
2023-01-29T08:00:44.196Z,58.30
2023-01-29T08:03:13.931Z,58.30
2023-01-29T08:05:40.520Z,58.20
2023-01-29T08:08:07.968Z,58.20
2023-01-29T08:10:35.882Z,58.10
2023-01-29T08:13:03.786Z,58.10
2023-01-29T08:15:30.708Z,57.90
2023-01-29T08:17:58.407Z,58.00
2023-01-29T08:20:25.669Z,57.90
2023-01-29T08:23:00.311Z,57.90
2023-01-29T08:25:27.552Z,57.80
2023-01-29T08:27:54.609Z,57.70
2023-01-29T08:30:21.263Z,57.60
2023-01-29T08:32:47.869Z,57.50
2023-01-29T08:35:14.627Z,57.40
2023-01-29T08:37:41.206Z,57.30
2023-01-29T08:40:09.806Z,57.20
2023-01-29T08:42:36.452Z,57.00
2023-01-29T08:45:03.287Z,56.80
2023-01-29T08:47:29.911Z,56.70
2023-01-29T08:49:56.503Z,56.60
2023-01-29T08:52:23.127Z,56.50
2023-01-29T08:54:49.720Z,56.50
2023-01-29T08:57:16.317Z,56.50
2023-01-29T08:59:42.968Z,56.40
2023-01-29T09:02:11.330Z,56.40
2023-01-29T09:04:37.976Z,56.30
2023-01-29T09:07:04.556Z,56.30
2023-01-29T09:09:31.187Z,56.20
2023-01-29T09:11:57.780Z,56.10
2023-01-29T09:14:24.416Z,56.10
2023-01-29T09:16:51.087Z,56.00
2023-01-29T09:19:17.729Z,55.80
2023-01-29T09:21:44.314Z,55.60
2023-01-29T09:24:10.986Z,55.50
2023-01-29T09:26:39.572Z,55.30
2023-01-29T09:29:06.620Z,55.20
2023-01-29T09:31:33.537Z,54.90
2023-01-29T09:34:00.222Z,54.60
2023-01-29T09:36:26.871Z,54.50
2023-01-29T09:38:53.530Z,54.20
2023-01-29T09:41:46.176Z,53.80
2023-01-29T09:44:56.658Z,53.00
2023-01-29T09:47:25.912Z,52.90
2023-01-29T09:50:19.029Z,53.10
2023-01-29T09:52:49.753Z,52.50
2023-01-29T09:55:25.006Z,53.20
2023-01-29T09:57:58.333Z,52.70
2023-01-29T10:00:34.014Z,52.50
2023-01-29T10:03:14.507Z,52.50
2023-01-29T10:05:49.091Z,52.00
2023-01-29T10:08:37.479Z,52.00
2023-01-29T10:11:21.331Z,51.70
2023-01-29T10:14:04.685Z,51.80
2023-01-29T10:16:59.058Z,52.50
2023-01-29T10:19:49.474Z,52.00
2023-01-29T10:22:28.417Z,51.80
2023-01-29T10:25:02.143Z,51.60
2023-01-29T10:27:34.540Z,51.70
2023-01-29T10:30:06.831Z,51.10
2023-01-29T10:32:36.970Z,51.00
2023-01-29T10:35:21.428Z,51.00
2023-01-29T10:37:48.599Z,50.80
2023-01-29T10:40:20.020Z,50.70
2023-01-29T10:43:06.449Z,50.70
2023-01-29T10:45:51.925Z,50.60
2023-01-29T10:48:39.865Z,50.90
2023-01-29T10:51:29.828Z,51.20
2023-01-29T10:54:47.578Z,51.10
2023-01-29T10:57:37.911Z,50.80
2023-01-29T11:00:19.286Z,50.80
2023-01-29T11:02:48.536Z,50.90
2023-01-29T11:05:35.994Z,50.90
2023-01-29T11:08:12.107Z,50.60
2023-01-29T11:10:48.022Z,50.70
2023-01-29T11:13:17.911Z,50.70
2023-01-29T11:15:44.560Z,50.80
2023-01-29T11:18:14.222Z,50.90
2023-01-29T11:20:42.947Z,50.70
2023-01-29T11:23:32.451Z,50.70
2023-01-29T11:26:00.573Z,50.40
2023-01-29T11:28:36.507Z,50.60
2023-01-29T11:31:03.329Z,50.40
2023-01-29T11:33:30.639Z,50.40
2023-01-29T11:35:58.914Z,50.50
2023-01-29T11:38:27.961Z,50.40
2023-01-29T11:41:06.797Z,50.10
2023-01-29T11:43:33.691Z,50.10
2023-01-29T11:46:13.567Z,50.20
2023-01-29T11:48:44.299Z,50.00
2023-01-29T11:51:21.147Z,50.20
2023-01-29T11:53:54.254Z,50.10
2023-01-29T11:56:41.587Z,50.00
2023-01-29T11:59:48.803Z,49.90
2023-01-29T12:02:30.723Z,49.80
2023-01-29T12:05:05.723Z,49.60
2023-01-29T12:07:33.667Z,49.50
2023-01-29T12:10:00.547Z,49.60
2023-01-29T12:12:34.311Z,49.40
2023-01-29T12:15:24.344Z,49.20
2023-01-29T12:17:57.645Z,49.20
2023-01-29T12:20:30.493Z,49.20
2023-01-29T12:23:27.427Z,49.10
2023-01-29T12:26:02.838Z,49.20
2023-01-29T12:28:42.482Z,49.30
2023-01-29T12:31:37.659Z,49.30
2023-01-29T12:34:19.382Z,49.20
2023-01-29T12:36:59.313Z,49.30
2023-01-29T12:39:26.220Z,49.10
2023-01-29T12:42:23.103Z,49.30
2023-01-29T12:45:02.758Z,49.20
2023-01-29T12:47:37.069Z,49.50
2023-01-29T12:50:14.172Z,49.40
2023-01-29T12:53:02.756Z,49.00
2023-01-29T12:55:37.221Z,49.10
2023-01-29T12:58:22.745Z,49.40
2023-01-29T13:00:52.734Z,49.30
2023-01-29T13:03:33.273Z,49.40
2023-01-29T13:06:05.743Z,49.30
2023-01-29T13:09:02.859Z,49.40
2023-01-29T13:11:47.830Z,49.30
2023-01-29T13:14:24.085Z,49.40
2023-01-29T13:17:02.848Z,49.50
2023-01-29T13:19:38.292Z,49.60
2023-01-29T13:22:18.089Z,49.70
2023-01-29T13:24:55.460Z,49.90
2023-01-29T13:27:33.314Z,50.10
2023-01-29T13:30:00.825Z,50.20
2023-01-29T13:32:30.566Z,50.20
2023-01-29T13:35:01.117Z,50.40
2023-01-29T13:37:37.404Z,50.60
2023-01-29T13:40:06.860Z,50.80
2023-01-29T13:42:43.739Z,51.00
2023-01-29T13:45:21.399Z,51.00
2023-01-29T13:47:49.745Z,51.10
2023-01-29T13:50:32.712Z,51.20
2023-01-29T13:53:04.656Z,51.10
2023-01-29T13:55:37.169Z,51.20
2023-01-29T13:58:13.491Z,51.10
2023-01-29T14:00:40.045Z,51.20
2023-01-29T14:03:11.690Z,51.20
2023-01-29T14:05:39.264Z,51.20
2023-01-29T14:08:09.550Z,51.00
2023-01-29T14:10:37.640Z,51.10
2023-01-29T14:13:04.307Z,51.00
2023-01-29T14:15:32.429Z,51.00
2023-01-29T14:18:00.539Z,50.90
2023-01-29T14:20:49.944Z,50.90
2023-01-29T14:23:23.798Z,51.00
2023-01-29T14:25:50.641Z,51.00
2023-01-29T14:28:23.780Z,51.00
2023-01-29T14:30:51.628Z,51.00
2023-01-29T14:33:38.533Z,51.10
2023-01-29T14:36:11.037Z,51.10
2023-01-29T14:38:38.656Z,51.10
2023-01-29T14:41:30.131Z,51.20
2023-01-29T14:44:35.595Z,51.30
2023-01-29T14:47:02.429Z,51.40
2023-01-29T14:49:49.286Z,51.60
2023-01-29T14:52:18.535Z,51.60
2023-01-29T14:54:47.701Z,51.70
2023-01-29T14:57:17.870Z,51.70
2023-01-29T15:00:01.487Z,51.70
2023-01-29T15:02:33.706Z,51.80
2023-01-29T15:05:04.826Z,51.80
2023-01-29T15:07:44.055Z,51.90
2023-01-29T15:10:23.394Z,52.00
2023-01-29T15:13:02.261Z,52.10
2023-01-29T15:15:51.768Z,52.20
2023-01-29T15:18:21.352Z,52.40
2023-01-29T15:20:47.984Z,52.50
2023-01-29T15:23:34.385Z,52.50
2023-01-29T15:26:07.646Z,52.70
2023-01-29T15:28:35.552Z,52.90
2023-01-29T15:31:05.567Z,53.00
2023-01-29T15:33:34.981Z,53.20
2023-01-29T15:36:08.447Z,53.30
2023-01-29T15:38:35.581Z,53.50
2023-01-29T15:41:20.215Z,53.70
2023-01-29T15:43:56.631Z,53.90
2023-01-29T15:46:37.683Z,54.10
2023-01-29T15:49:17.503Z,54.20
2023-01-29T15:51:45.477Z,54.40
2023-01-29T15:54:16.372Z,54.50
2023-01-29T15:56:52.305Z,54.70
2023-01-29T15:59:23.194Z,54.90
2023-01-29T16:01:49.924Z,55.00
2023-01-29T16:04:28.781Z,55.10
2023-01-29T16:06:57.040Z,55.40
2023-01-29T16:09:26.042Z,55.50
2023-01-29T16:11:54.168Z,55.70
2023-01-29T16:14:25.421Z,55.80
2023-01-29T16:16:52.576Z,55.90
2023-01-29T16:19:29.011Z,56.10
2023-01-29T16:22:06.755Z,56.40
2023-01-29T16:24:36.330Z,56.60
2023-01-29T16:27:13.587Z,56.70
2023-01-29T16:29:40.419Z,56.90
2023-01-29T16:32:09.961Z,56.90
2023-01-29T16:34:40.029Z,57.10
2023-01-29T16:37:24.979Z,57.20
2023-01-29T16:39:52.832Z,57.40
2023-01-29T16:42:30.445Z,57.40
2023-01-29T16:45:04.532Z,57.60
2023-01-29T16:47:41.042Z,57.80
2023-01-29T16:50:24.274Z,57.90
2023-01-29T16:53:00.946Z,58.10
2023-01-29T16:55:35.447Z,58.20
2023-01-29T16:58:10.607Z,58.30
2023-01-29T17:00:37.336Z,58.30
2023-01-29T17:03:07.633Z,58.40
2023-01-29T17:05:37.124Z,58.60
2023-01-29T17:08:04.565Z,58.70
2023-01-29T17:10:31.964Z,58.70
2023-01-29T17:13:08.353Z,58.80
2023-01-29T17:15:46.702Z,59.20
2023-01-29T17:18:17.285Z,59.40
2023-01-29T17:20:43.950Z,59.50
2023-01-29T17:23:10.549Z,59.50
2023-01-29T17:25:37.552Z,59.60
2023-01-29T17:28:04.412Z,59.70
2023-01-29T17:30:34.713Z,59.80
2023-01-29T17:33:02.803Z,59.90
2023-01-29T17:35:29.419Z,60.00
2023-01-29T17:37:55.971Z,60.10
2023-01-29T17:40:32.198Z,60.80
2023-01-29T17:42:58.863Z,61.00
2023-01-29T17:45:25.570Z,60.70
2023-01-29T17:47:52.167Z,60.30
2023-01-29T17:50:26.220Z,60.00
2023-01-29T17:52:53.842Z,60.00
2023-01-29T17:55:20.767Z,59.80
2023-01-29T17:57:47.487Z,59.80
2023-01-29T18:00:20.391Z,59.80
2023-01-29T18:02:47.367Z,60.00
2023-01-29T18:05:15.131Z,59.90
2023-01-29T18:07:44.234Z,60.00
2023-01-29T18:10:17.476Z,60.10
2023-01-29T18:12:44.137Z,60.30
2023-01-29T18:15:11.600Z,60.30
2023-01-29T18:17:38.907Z,60.40
2023-01-29T18:20:25.990Z,60.50
2023-01-29T18:22:53.188Z,60.70
2023-01-29T18:25:20.825Z,60.70
2023-01-29T18:27:47.616Z,60.80
2023-01-29T18:30:15.230Z,60.80
2023-01-29T18:32:41.890Z,61.00
2023-01-29T18:35:09.233Z,61.00
2023-01-29T18:37:36.241Z,61.10
2023-01-29T18:40:02.980Z,61.20
2023-01-29T18:42:33.095Z,61.30
2023-01-29T18:44:59.802Z,61.40
2023-01-29T18:47:26.359Z,61.30
2023-01-29T18:49:53.084Z,61.40
2023-01-29T18:52:19.659Z,61.40
2023-01-29T18:54:46.270Z,61.50
2023-01-29T18:58:24.880Z,61.60
2023-01-29T18:59:59.626Z,61.70
2023-01-29T19:02:26.635Z,61.80
2023-01-29T19:04:53.396Z,61.90
2023-01-29T19:07:19.960Z,62.00
2023-01-29T19:09:46.954Z,62.10
2023-01-29T19:12:14.104Z,62.10
2023-01-29T19:14:40.761Z,62.20
2023-01-29T19:17:08.080Z,62.30
2023-01-29T19:19:34.847Z,62.40
2023-01-29T19:22:02.188Z,62.50
2023-01-29T19:24:29.165Z,62.60
2023-01-29T19:26:55.809Z,62.60
2023-01-29T19:29:22.631Z,62.60
2023-01-29T19:31:49.294Z,62.70
2023-01-29T19:34:15.971Z,62.80
2023-01-29T19:36:43.033Z,62.80
2023-01-29T19:39:11.364Z,62.90
2023-01-29T19:41:38.062Z,63.00
2023-01-29T19:44:04.758Z,63.00
2023-01-29T19:46:31.396Z,63.10
2023-01-29T19:48:58.722Z,63.10
2023-01-29T19:51:27.219Z,63.20
2023-01-29T19:53:55.589Z,63.20
2023-01-29T19:56:22.230Z,63.30
2023-01-29T19:58:48.931Z,63.40
2023-01-29T20:01:20.601Z,63.50
2023-01-29T20:03:48.974Z,63.60
2023-01-29T20:06:18.140Z,63.60
2023-01-29T20:08:48.219Z,63.70
2023-01-29T20:11:16.903Z,63.80
2023-01-29T20:13:43.655Z,63.90
2023-01-29T20:16:10.415Z,63.90
2023-01-29T20:18:37.007Z,64.20
2023-01-29T20:21:09.427Z,64.30
2023-01-29T20:23:38.638Z,64.70
2023-01-29T20:26:07.624Z,64.60
2023-01-29T20:28:34.944Z,64.70
2023-01-29T20:31:01.792Z,64.70
2023-01-29T20:33:28.970Z,64.70
2023-01-29T20:36:00.577Z,64.70
2023-01-29T20:38:30.407Z,64.70
2023-01-29T20:41:09.060Z,64.70
2023-01-29T20:43:36.051Z,64.80
2023-01-29T20:46:03.870Z,64.60
2023-01-29T20:48:31.867Z,64.60
2023-01-29T20:51:04.637Z,64.70
2023-01-29T20:53:31.263Z,64.80
2023-01-29T20:55:57.935Z,64.80
2023-01-29T20:58:24.779Z,64.80
2023-01-29T21:00:51.428Z,64.80
2023-01-29T21:03:18.175Z,64.80
2023-01-29T21:05:45.044Z,64.90
2023-01-29T21:08:11.987Z,64.90
2023-01-29T21:10:38.860Z,64.80
2023-01-29T21:13:05.535Z,64.90
2023-01-29T21:15:32.186Z,64.90
2023-01-29T21:18:02.488Z,64.90
2023-01-29T21:20:29.109Z,64.90
2023-01-29T21:22:55.707Z,64.90
2023-01-29T21:25:23.399Z,64.90
2023-01-29T21:27:50.393Z,64.90
2023-01-29T21:30:18.181Z,64.90
2023-01-29T21:32:45.006Z,64.90
2023-01-29T21:35:11.687Z,64.80
2023-01-29T21:37:38.257Z,64.90
2023-01-29T21:40:06.047Z,64.90
2023-01-29T21:42:51.444Z,65.00
2023-01-29T21:45:18.494Z,65.00
2023-01-29T21:47:45.091Z,65.00
2023-01-29T21:50:11.993Z,65.00
2023-01-29T21:52:38.608Z,65.10
2023-01-29T21:55:06.301Z,65.20
2023-01-29T21:57:32.961Z,65.20
2023-01-29T21:59:59.584Z,65.30
2023-01-29T22:02:27.635Z,65.30
2023-01-29T22:05:05.326Z,65.40
2023-01-29T22:07:42.976Z,65.40
2023-01-29T22:10:10.402Z,65.40
2023-01-29T22:12:37.127Z,65.50
2023-01-29T22:15:05.217Z,65.50
2023-01-29T22:17:31.889Z,65.60
2023-01-29T22:19:58.532Z,65.70
2023-01-29T22:22:25.158Z,65.80
2023-01-29T22:24:52.501Z,65.80
2023-01-29T22:27:19.113Z,65.90
2023-01-29T22:29:45.807Z,65.90
2023-01-29T22:32:13.173Z,66.00
2023-01-29T22:34:39.827Z,66.00
2023-01-29T22:37:06.453Z,66.20
2023-01-29T22:39:33.086Z,66.20
2023-01-29T22:41:59.680Z,66.30
2023-01-29T22:44:26.310Z,66.30
2023-01-29T22:46:52.891Z,66.30
2023-01-29T22:49:19.724Z,66.40
2023-01-29T22:51:47.198Z,66.40
2023-01-29T22:54:15.450Z,66.40
2023-01-29T22:56:42.065Z,66.50
2023-01-29T22:59:10.111Z,66.50
2023-01-29T23:01:36.846Z,66.50
2023-01-29T23:04:03.556Z,66.50
2023-01-29T23:06:30.167Z,66.70
2023-01-29T23:08:56.787Z,66.70
2023-01-29T23:11:23.749Z,66.80
2023-01-29T23:13:52.134Z,66.80
2023-01-29T23:16:20.565Z,66.90
2023-01-29T23:18:51.187Z,66.90
2023-01-29T23:21:19.038Z,66.90
2023-01-29T23:23:46.080Z,66.80
2023-01-29T23:26:32.029Z,66.90
2023-01-29T23:28:59.134Z,66.90
2023-01-29T23:31:26.400Z,66.90
2023-01-29T23:33:53.082Z,66.90
2023-01-29T23:36:19.691Z,66.90
2023-01-29T23:38:46.326Z,67.00
2023-01-29T23:41:13.068Z,67.10
2023-01-29T23:43:39.687Z,67.10
2023-01-29T23:46:06.311Z,67.10
2023-01-29T23:48:32.953Z,67.20
2023-01-29T23:50:59.775Z,67.20
2023-01-29T23:53:26.447Z,67.20
2023-01-29T23:56:02.071Z,67.30
2023-01-29T23:58:30.000Z,67.50
